Time;durP1;ratioP1;P1;durP2;ratioP2;P2;SDS_P1;SDS_P2;PMS_P1;PMS_P2;Temp;Humidity;BMP_temperature;BMP_pressure;BME280_temperature;BME280_humidity;BME280_pressure;Samples;Min_cycle;Max_cycle;Signal;HPM_P1;HPM_P2
2023/09/28 00:01:37;;;;;;;2.63;2.20;;;18.10;99.90;;;;;;5088163;28;20060;-73
2023/09/28 00:04:02;;;;;;;2.30;1.55;;;18.00;99.90;;;;;;5121711;27;20055;-74
2023/09/28 00:06:29;;;;;;;2.33;1.65;;;18.10;99.90;;;;;;5122618;27;20052;-74
2023/09/28 00:08:55;;;;;;;1.85;1.52;;;18.10;99.90;;;;;;5122413;27;20104;-74
2023/09/28 00:11:21;;;;;;;3.28;1.83;;;18.10;99.90;;;;;;5121252;27;20048;-74
2023/09/28 00:13:46;;;;;;;2.22;1.55;;;18.00;99.90;;;;;;5090032;28;20050;-74
2023/09/28 00:16:12;;;;;;;2.03;1.15;;;18.00;99.90;;;;;;5086940;28;20517;-74
2023/09/28 00:18:38;;;;;;;2.78;1.92;;;18.00;99.90;;;;;;5085776;28;20078;-74
2023/09/28 00:21:04;;;;;;;1.88;1.42;;;18.00;99.90;;;;;;5117251;27;20040;-74
2023/09/28 00:23:29;;;;;;;8.00;1.85;;;18.00;99.90;;;;;;5084944;28;20041;-74
2023/09/28 00:25:55;;;;;;;2.28;1.52;;;17.90;99.90;;;;;;5071134;28;20186;-74
2023/09/28 00:28:21;;;;;;;3.47;2.00;;;17.90;99.90;;;;;;5125193;27;20484;-74
2023/09/28 00:30:48;;;;;;;1.42;1.20;;;17.90;99.90;;;;;;5075544;28;20027;-73
2023/09/28 00:33:14;;;;;;;2.00;1.40;;;17.90;99.90;;;;;;5121252;27;20051;-74
2023/09/28 00:35:40;;;;;;;1.88;1.40;;;17.90;99.90;;;;;;5120057;27;20040;-74
2023/09/28 00:38:06;;;;;;;2.25;1.58;;;17.90;99.90;;;;;;5072564;28;20028;-73
2023/09/28 00:40:32;;;;;;;3.20;1.52;;;17.90;99.90;;;;;;5086855;28;20044;-73
2023/09/28 00:43:00;;;;;;;3.25;1.80;;;17.90;99.90;;;;;;5084313;28;20044;-74
2023/09/28 00:45:26;;;;;;;3.20;1.73;;;17.90;99.90;;;;;;5092602;28;20028;-74
2023/09/28 00:48:02;;;;;;;2.10;1.20;;;17.90;99.90;;;;;;5083383;28;20063;-74
2023/09/28 00:50:31;;;;;;;2.83;2.05;;;17.90;99.90;;;;;;5096270;28;20244;-74
2023/09/28 00:53:06;;;;;;;2.95;1.42;;;17.90;99.90;;;;;;5105664;28;20055;-74
2023/09/28 00:55:33;;;;;;;2.47;1.48;;;17.90;99.90;;;;;;5087159;28;20044;-74
2023/09/28 00:58:05;;;;;;;2.33;1.45;;;17.90;99.90;;;;;;5088376;28;20180;-73
2023/09/28 01:00:34;;;;;;;1.92;1.05;;;17.90;99.90;;;;;;5086616;28;20071;-74
2023/09/28 01:03:08;;;;;;;1.80;1.35;;;17.90;99.90;;;;;;5086034;28;20127;-73
2023/09/28 01:05:38;;;;;;;1.48;0.82;;;17.90;99.90;;;;;;5089269;28;20028;-73
2023/09/28 01:08:18;;;;;;;2.05;1.13;;;17.90;99.90;;;;;;5117238;27;20044;-73
2023/09/28 01:10:45;;;;;;;1.63;1.15;;;17.90;99.90;;;;;;5115656;27;20047;-73
2023/09/28 01:13:15;;;;;;;1.38;1.08;;;17.90;99.90;;;;;;5102927;28;20049;-73
2023/09/28 01:15:43;;;;;;;1.95;0.85;;;17.90;99.90;;;;;;5120576;27;20036;-73
2023/09/28 01:18:15;;;;;;;2.17;1.15;;;17.90;99.90;;;;;;5085474;28;20088;-74
2023/09/28 01:20:43;;;;;;;2.40;1.00;;;17.90;99.90;;;;;;5121034;27;20067;-74
2023/09/28 01:23:09;;;;;;;3.97;0.68;;;17.90;99.90;;;;;;5119635;27;20039;-74
2023/09/28 01:25:37;;;;;;;1.88;1.08;;;17.90;99.90;;;;;;5071573;28;20491;-74
2023/09/28 01:28:03;;;;;;;1.80;0.95;;;17.90;99.90;;;;;;5084270;28;20035;-74
2023/09/28 01:30:30;;;;;;;1.50;0.70;;;17.90;99.90;;;;;;5087276;28;20051;-74
2023/09/28 01:32:56;;;;;;;1.35;0.82;;;17.90;99.90;;;;;;5092865;28;20050;-74
2023/09/28 01:35:22;;;;;;;2.60;1.05;;;17.80;99.90;;;;;;5087353;28;20176;-74
2023/09/28 01:37:50;;;;;;;2.55;1.05;;;17.80;99.90;;;;;;5088876;28;20056;-74
2023/09/28 01:40:16;;;;;;;1.58;0.90;;;17.70;99.90;;;;;;5087212;28;20119;-74
2023/09/28 01:42:42;;;;;;;1.08;0.95;;;17.70;99.90;;;;;;5090552;28;20036;-74
2023/09/28 01:45:08;;;;;;;2.60;0.77;;;17.70;99.90;;;;;;5083776;28;20066;-74
2023/09/28 01:47:34;;;;;;;2.10;0.93;;;17.70;99.90;;;;;;5108703;28;20036;-74
2023/09/28 01:50:00;;;;;;;2.55;0.93;;;17.60;99.90;;;;;;5070170;28;20052;-73
2023/09/28 01:52:26;;;;;;;1.40;0.70;;;17.60;99.90;;;;;;5089066;28;20113;-73
2023/09/28 01:54:52;;;;;;;2.80;1.08;;;17.50;99.90;;;;;;5086486;28;20186;-73
2023/09/28 01:57:18;;;;;;;2.00;1.08;;;17.50;99.90;;;;;;5088958;28;20046;-74
2023/09/28 01:59:43;;;;;;;1.15;0.60;;;17.40;99.90;;;;;;5085054;28;20047;-74
2023/09/28 02:02:10;;;;;;;1.05;0.63;;;17.40;99.90;;;;;;5124685;27;20028;-74
2023/09/28 02:04:39;;;;;;;1.35;0.77;;;17.40;99.90;;;;;;5101622;28;20032;-74
2023/09/28 02:07:05;;;;;;;2.20;1.00;;;17.40;99.90;;;;;;5086962;28;20036;-74
2023/09/28 02:09:31;;;;;;;1.25;0.70;;;17.30;99.90;;;;;;5120074;28;20142;-74
2023/09/28 02:11:57;;;;;;;1.13;0.57;;;17.20;99.90;;;;;;5124529;28;20040;-74
2023/09/28 02:14:23;;;;;;;0.98;0.70;;;17.10;99.90;;;;;;5088648;28;20032;-74
2023/09/28 02:16:52;;;;;;;1.17;0.90;;;17.10;99.90;;;;;;5123968;28;20091;-74
2023/09/28 02:19:18;;;;;;;1.58;0.93;;;17.00;99.90;;;;;;5091884;28;20036;-74
2023/09/28 02:21:46;;;;;;;1.45;0.70;;;17.00;99.90;;;;;;5123222;28;20051;-74
2023/09/28 02:24:12;;;;;;;1.08;0.50;;;17.00;99.90;;;;;;5094070;28;20035;-74
2023/09/28 02:26:38;;;;;;;1.48;0.73;;;16.90;99.90;;;;;;5131564;27;20051;-74
2023/09/28 02:29:04;;;;;;;2.67;0.85;;;16.80;99.90;;;;;;5100355;28;20545;-74
2023/09/28 02:31:31;;;;;;;1.60;0.88;;;16.70;99.90;;;;;;5129153;27;20131;-74
2023/09/28 02:33:57;;;;;;;1.30;0.90;;;16.60;99.90;;;;;;5095760;28;20039;-74
2023/09/28 02:36:22;;;;;;;0.95;0.80;;;16.60;99.90;;;;;;5099721;28;20214;-73
2023/09/28 02:38:48;;;;;;;1.67;0.70;;;16.50;99.90;;;;;;5098073;28;20054;-74
2023/09/28 02:41:18;;;;;;;1.63;0.75;;;16.50;99.90;;;;;;5094248;28;20398;-73
2023/09/28 02:43:44;;;;;;;1.88;0.98;;;16.40;99.90;;;;;;5084592;28;20073;-74
2023/09/28 02:46:11;;;;;;;2.30;0.88;;;16.40;99.90;;;;;;5134475;27;20069;-74
2023/09/28 02:48:37;;;;;;;1.90;1.02;;;16.40;99.90;;;;;;5097678;28;20039;-73
2023/09/28 02:51:11;;;;;;;1.27;0.93;;;16.30;99.90;;;;;;5094115;28;20043;-73
2023/09/28 02:53:37;;;;;;;1.33;0.80;;;16.30;99.90;;;;;;5096622;28;20240;-73
2023/09/28 02:56:03;;;;;;;1.27;0.85;;;16.20;99.90;;;;;;5124132;27;20032;-74
2023/09/28 02:58:29;;;;;;;1.33;0.68;;;16.20;99.90;;;;;;5094387;28;20113;-74
2023/09/28 03:00:56;;;;;;;1.38;0.88;;;16.10;99.90;;;;;;5127902;27;20040;-73
2023/09/28 03:03:23;;;;;;;1.85;0.98;;;16.00;99.90;;;;;;5094886;28;20035;-74
2023/09/28 03:05:54;;;;;;;1.10;0.77;;;16.00;99.90;;;;;;5133373;27;20042;-73
2023/09/28 03:08:20;;;;;;;3.42;1.00;;;16.00;99.90;;;;;;5093398;28;20040;-73
2023/09/28 03:10:46;;;;;;;2.22;0.90;;;15.90;99.90;;;;;;5134044;27;20064;-73
2023/09/28 03:13:12;;;;;;;2.40;1.30;;;15.90;99.90;;;;;;5111995;28;20103;-74
2023/09/28 03:15:43;;;;;;;2.58;1.35;;;15.80;99.90;;;;;;5133226;27;20035;-74
2023/09/28 03:18:12;;;;;;;1.50;1.00;;;15.80;99.90;;;;;;5108184;28;20070;-74
2023/09/28 03:20:38;;;;;;;1.98;1.00;;;15.80;99.90;;;;;;5096082;28;20047;-73
2023/09/28 03:23:04;;;;;;;2.55;1.00;;;15.80;99.90;;;;;;5089944;28;20472;-73
2023/09/28 03:25:30;;;;;;;1.65;1.10;;;15.80;99.90;;;;;;5078396;28;20044;-74
2023/09/28 03:27:56;;;;;;;2.40;1.20;;;15.80;99.90;;;;;;5094950;28;20036;-74
2023/09/28 03:30:24;;;;;;;2.50;1.30;;;15.80;99.90;;;;;;5093670;28;20213;-74
2023/09/28 03:32:50;;;;;;;1.88;1.20;;;15.80;99.90;;;;;;5093769;28;20092;-74
2023/09/28 03:35:17;;;;;;;3.05;1.40;;;15.70;99.90;;;;;;5093502;28;20036;-73
2023/09/28 03:37:44;;;;;;;2.38;1.20;;;15.70;99.90;;;;;;5089904;28;20028;-73
2023/09/28 03:40:12;;;;;;;4.10;0.88;;;15.70;99.90;;;;;;5094682;28;20097;-73
2023/09/28 03:42:39;;;;;;;3.28;1.27;;;15.60;99.90;;;;;;5094279;28;20088;-73
2023/09/28 03:45:08;;;;;;;1.83;1.02;;;15.60;99.90;;;;;;5087839;28;20040;-73
2023/09/28 03:47:35;;;;;;;2.45;1.10;;;15.50;99.90;;;;;;5092996;28;20045;-73
2023/09/28 03:50:01;;;;;;;1.67;0.90;;;15.50;99.90;;;;;;5092538;28;20143;-73
2023/09/28 03:52:27;;;;;;;3.30;1.80;;;15.40;99.90;;;;;;5090737;28;20457;-73
2023/09/28 03:54:53;;;;;;;2.80;0.93;;;15.40;99.90;;;;;;5078528;28;20089;-73
2023/09/28 03:57:19;;;;;;;3.20;1.30;;;15.40;99.90;;;;;;5092222;28;20036;-73
2023/09/28 03:59:44;;;;;;;1.17;0.90;;;15.40;99.90;;;;;;5092523;28;20032;-72
2023/09/28 04:02:10;;;;;;;1.10;0.70;;;15.40;99.90;;;;;;5077919;28;20060;-73
2023/09/28 04:04:36;;;;;;;1.63;0.95;;;15.30;99.90;;;;;;5123538;27;20371;-73
2023/09/28 04:07:02;;;;;;;1.25;0.90;;;15.30;99.90;;;;;;5091822;28;20046;-73
2023/09/28 04:09:27;;;;;;;1.98;1.25;;;15.30;99.90;;;;;;5089707;28;20063;-73
2023/09/28 04:11:53;;;;;;;1.77;1.05;;;15.30;99.90;;;;;;5093209;28;20059;-73
2023/09/28 04:14:18;;;;;;;1.92;1.08;;;15.20;99.90;;;;;;5074085;28;20040;-73
2023/09/28 04:16:45;;;;;;;1.27;0.90;;;15.20;99.90;;;;;;5096614;28;20043;-74
2023/09/28 04:19:11;;;;;;;2.58;1.02;;;15.20;99.90;;;;;;5090850;28;20096;-73
2023/09/28 04:21:36;;;;;;;1.08;0.88;;;15.20;99.90;;;;;;5130535;27;20056;-73
2023/09/28 04:24:02;;;;;;;1.13;1.00;;;15.10;99.90;;;;;;5099306;28;20038;-73
2023/09/28 04:26:28;;;;;;;1.83;0.88;;;15.10;99.90;;;;;;5136965;27;20479;-74
2023/09/28 04:28:54;;;;;;;1.90;1.17;;;15.10;99.90;;;;;;5076822;28;20035;-73
2023/09/28 04:31:19;;;;;;;2.22;1.15;;;15.10;99.90;;;;;;5128692;27;20042;-73
2023/09/28 04:33:45;;;;;;;2.20;1.05;;;15.10;99.90;;;;;;5093809;28;20036;-73
2023/09/28 04:36:11;;;;;;;2.28;1.30;;;15.10;99.90;;;;;;5129604;27;20044;-73
2023/09/28 04:38:37;;;;;;;1.88;1.20;;;15.10;99.90;;;;;;5087646;28;20041;-73
2023/09/28 04:41:03;;;;;;;1.60;1.15;;;15.10;99.90;;;;;;5093957;28;20032;-73
2023/09/28 04:43:29;;;;;;;1.23;0.70;;;15.00;99.90;;;;;;5128991;27;20052;-73
2023/09/28 04:45:55;;;;;;;2.95;1.38;;;15.00;99.90;;;;;;5094505;28;20058;-74
2023/09/28 04:48:21;;;;;;;1.15;0.70;;;15.10;99.90;;;;;;5100377;28;20104;-74
2023/09/28 04:50:47;;;;;;;1.70;0.80;;;15.00;99.90;;;;;;5129297;27;20188;-74
2023/09/28 04:53:13;;;;;;;1.90;1.08;;;15.00;99.90;;;;;;5132085;27;20103;-74
2023/09/28 04:55:38;;;;;;;2.13;1.38;;;15.00;99.90;;;;;;5131068;27;20271;-74
2023/09/28 04:58:05;;;;;;;1.33;1.10;;;15.00;99.90;;;;;;5127638;27;20388;-73
2023/09/28 05:00:32;;;;;;;2.80;0.90;;;14.90;99.90;;;;;;5100722;28;20070;-73
2023/09/28 05:03:01;;;;;;;2.47;1.10;;;14.90;99.90;;;;;;5095379;28;20100;-73
2023/09/28 05:05:27;;;;;;;2.25;1.10;;;14.90;99.90;;;;;;5130341;27;20039;-73
2023/09/28 05:07:52;;;;;;;2.72;1.55;;;14.90;99.90;;;;;;5128224;27;20032;-73
2023/09/28 05:10:18;;;;;;;3.28;1.55;;;14.80;99.90;;;;;;5085950;28;20047;-73
2023/09/28 05:12:44;;;;;;;2.35;1.13;;;14.80;99.90;;;;;;5095897;28;20046;-73
2023/09/28 05:15:10;;;;;;;1.50;1.10;;;14.80;99.90;;;;;;5093913;28;20472;-74
2023/09/28 05:17:35;;;;;;;2.17;1.35;;;14.80;99.90;;;;;;5121733;27;20120;-74
2023/09/28 05:20:01;;;;;;;2.55;1.25;;;14.80;99.90;;;;;;5094240;28;20119;-74
2023/09/28 05:22:27;;;;;;;1.35;0.85;;;14.80;99.90;;;;;;5092710;28;20036;-74
2023/09/28 05:24:53;;;;;;;6.28;1.58;;;14.80;99.90;;;;;;5075058;28;20055;-74
2023/09/28 05:27:19;;;;;;;1.70;1.10;;;14.70;99.90;;;;;;5089055;28;20036;-74
2023/09/28 05:29:45;;;;;;;3.05;1.25;;;14.70;99.90;;;;;;5096724;28;20098;-74
2023/09/28 05:32:11;;;;;;;1.27;0.88;;;14.70;99.90;;;;;;5079217;28;20043;-74
2023/09/28 05:34:37;;;;;;;0.68;0.63;;;14.70;99.90;;;;;;5095269;28;20189;-72
2023/09/28 05:37:03;;;;;;;3.65;1.20;;;14.60;99.90;;;;;;5089998;28;20054;-74
2023/09/28 05:39:29;;;;;;;3.70;1.67;;;14.60;99.90;;;;;;5092702;28;20096;-74
2023/09/28 05:41:56;;;;;;;2.15;1.55;;;14.60;99.90;;;;;;5099766;28;20356;-74
2023/09/28 05:44:25;;;;;;;2.00;0.90;;;14.60;99.90;;;;;;5082052;28;20015;-74
2023/09/28 05:46:51;;;;;;;1.50;0.75;;;14.60;99.90;;;;;;5096487;28;20567;-74
2023/09/28 05:49:17;;;;;;;1.40;0.85;;;14.60;99.90;;;;;;5097837;28;20066;-74
2023/09/28 05:51:42;;;;;;;3.45;1.27;;;14.60;99.90;;;;;;5095335;28;20040;-74
2023/09/28 05:54:08;;;;;;;2.40;0.93;;;14.60;99.90;;;;;;5132439;27;20040;-74
2023/09/28 05:56:34;;;;;;;1.77;1.02;;;14.70;99.90;;;;;;5086526;28;20036;-74
2023/09/28 05:59:00;;;;;;;1.85;1.00;;;14.70;99.90;;;;;;5081992;28;20047;-74
2023/09/28 06:01:29;;;;;;;1.35;0.77;;;14.80;99.90;;;;;;5088056;28;20033;-72
2023/09/28 06:03:55;;;;;;;1.60;0.68;;;14.80;99.90;;;;;;5101100;28;20041;-73
2023/09/28 06:06:22;;;;;;;1.65;0.70;;;14.90;99.90;;;;;;5097142;28;20032;-73
2023/09/28 06:08:50;;;;;;;1.52;0.77;;;14.90;99.90;;;;;;5132673;28;20043;-73
2023/09/28 06:11:16;;;;;;;2.25;0.65;;;15.00;99.90;;;;;;5132785;28;20048;-73
2023/09/28 06:13:49;;;;;;;1.88;0.75;;;15.00;99.90;;;;;;5099461;28;20115;-73
2023/09/28 06:17:27;;;;;;;1.33;0.80;;;15.10;99.90;;;;;;5130368;27;20036;-74
2023/09/28 06:19:53;;;;;;;7.68;0.80;;;15.10;99.90;;;;;;4995230;28;20034;-70
2023/09/28 06:22:18;;;;;;;3.42;1.20;;;15.20;99.90;;;;;;4982755;28;20076;-71
2023/09/28 06:24:44;;;;;;;0.77;0.60;;;15.20;99.90;;;;;;5044540;28;20049;-70
2023/09/28 06:27:10;;;;;;;0.55;0.40;;;15.30;99.90;;;;;;5079861;28;20428;-70
2023/09/28 06:29:36;;;;;;;3.75;0.85;;;15.40;99.90;;;;;;5077834;28;20116;-70
2023/09/28 06:32:03;;;;;;;2.20;0.77;;;15.50;99.90;;;;;;5077084;28;20037;-71
2023/09/28 06:34:28;;;;;;;1.88;0.90;;;15.60;99.90;;;;;;5075917;28;20048;-70
2023/09/28 06:36:54;;;;;;;1.35;0.80;;;15.70;99.90;;;;;;5077112;28;20044;-71
2023/09/28 06:39:20;;;;;;;1.95;0.70;;;15.80;99.90;;;;;;5077047;28;20037;-70
2023/09/28 06:41:45;;;;;;;2.92;0.57;;;15.90;99.90;;;;;;5057886;28;20072;-71
2023/09/28 06:44:11;;;;;;;1.85;0.75;;;15.90;99.90;;;;;;5076558;28;20040;-71
2023/09/28 06:46:37;;;;;;;0.70;0.40;;;16.00;99.90;;;;;;5078062;28;20036;-71
2023/09/28 06:49:06;;;;;;;2.47;0.98;;;16.10;99.90;;;;;;5058714;28;20539;-70
2023/09/28 06:51:32;;;;;;;2.08;0.77;;;16.20;99.90;;;;;;5078825;28;20058;-70
2023/09/28 06:53:59;;;;;;;2.17;0.57;;;16.20;99.90;;;;;;5068647;28;20063;-70
2023/09/28 06:56:26;;;;;;;3.70;0.90;;;16.30;99.90;;;;;;5078830;28;20045;-72
2023/09/28 06:58:52;;;;;;;5.95;0.85;;;16.50;99.90;;;;;;5073846;28;20072;-70
2023/09/28 07:01:18;;;;;;;4.15;0.57;;;16.50;99.90;;;;;;5064724;28;20527;-70
2023/09/28 07:03:45;;;;;;;2.90;0.80;;;16.60;99.90;;;;;;5075552;28;20041;-70
2023/09/28 07:06:10;;;;;;;6.45;0.85;;;16.70;99.90;;;;;;5077489;28;20037;-70
2023/09/28 07:08:36;;;;;;;0.80;0.32;;;16.80;99.90;;;;;;5078211;28;20508;-70
2023/09/28 07:11:02;;;;;;;3.33;0.73;;;16.90;99.90;;;;;;5074495;28;20024;-71
2023/09/28 07:13:28;;;;;;;2.55;0.77;;;17.00;99.90;;;;;;5078610;28;20476;-70
2023/09/28 07:15:57;;;;;;;4.65;0.77;;;17.10;99.90;;;;;;5063006;28;20067;-71
2023/09/28 07:18:22;;;;;;;3.08;0.80;;;17.20;99.90;;;;;;5094022;28;20059;-71
2023/09/28 07:20:48;;;;;;;3.00;0.50;;;17.30;99.90;;;;;;5080291;28;20527;-71
2023/09/28 07:23:14;;;;;;;3.88;0.88;;;17.50;99.90;;;;;;5076950;28;20033;-71
2023/09/28 07:25:40;;;;;;;1.75;0.40;;;17.60;99.90;;;;;;5110488;27;20032;-71
2023/09/28 07:28:06;;;;;;;3.65;0.75;;;17.70;99.90;;;;;;5078965;28;20442;-70
2023/09/28 07:30:32;;;;;;;3.45;0.68;;;17.80;99.90;;;;;;5077497;28;20131;-71
2023/09/28 07:32:57;;;;;;;3.60;0.63;;;18.00;99.90;;;;;;5076448;28;20041;-72
2023/09/28 07:35:23;;;;;;;3.72;0.60;;;18.20;99.90;;;;;;5093550;28;20117;-71
2023/09/28 07:37:49;;;;;;;1.00;0.60;;;18.50;99.90;;;;;;5076666;28;20036;-72
2023/09/28 07:40:17;;;;;;;4.63;0.57;;;18.90;99.90;;;;;;5074320;28;20412;-72
2023/09/28 07:42:45;;;;;;;0.98;0.57;;;19.20;99.90;;;;;;5078082;28;20073;-72
2023/09/28 07:45:13;;;;;;;3.55;0.60;;;19.60;99.90;;;;;;5080120;28;20036;-69
2023/09/28 07:47:39;;;;;;;3.38;0.80;;;19.80;99.90;;;;;;5079995;28;20051;-70
2023/09/28 07:50:06;;;;;;;4.18;0.45;;;20.00;99.90;;;;;;5112180;27;20036;-70
2023/09/28 07:52:32;;;;;;;4.32;0.68;;;19.90;99.90;;;;;;5082212;28;20043;-70
2023/09/28 07:54:57;;;;;;;5.60;1.02;;;19.80;99.90;;;;;;5078738;28;20573;-70
2023/09/28 07:57:23;;;;;;;2.85;0.70;;;20.10;99.90;;;;;;5077442;28;20112;-70
2023/09/28 07:59:49;;;;;;;2.10;0.50;;;20.60;99.90;;;;;;5077844;28;20039;-70
2023/09/28 08:02:15;;;;;;;2.70;0.43;;;21.10;99.90;;;;;;5111116;27;20040;-71
2023/09/28 08:04:41;;;;;;;7.03;0.80;;;21.10;99.90;;;;;;5109242;27;20033;-71
2023/09/28 08:07:06;;;;;;;4.25;0.70;;;21.00;99.90;;;;;;5078560;28;20088;-71
2023/09/28 08:09:33;;;;;;;2.75;0.45;;;21.20;99.90;;;;;;5073779;28;20635;-72
2023/09/28 08:11:59;;;;;;;4.78;0.88;;;21.20;99.90;;;;;;5077760;28;20040;-72
2023/09/28 08:14:25;;;;;;;4.53;0.32;;;21.00;99.90;;;;;;5074782;28;20139;-71
2023/09/28 08:16:51;;;;;;;1.88;0.63;;;20.90;99.90;;;;;;5107204;27;20040;-71
2023/09/28 08:19:19;;;;;;;3.88;0.30;;;21.10;99.90;;;;;;5076123;28;20066;-71
2023/09/28 08:21:45;;;;;;;1.98;0.57;;;21.30;99.90;;;;;;5116855;27;20043;-72
2023/09/28 08:24:11;;;;;;;3.22;0.60;;;21.90;99.90;;;;;;5085578;28;20044;-71
2023/09/28 08:26:38;;;;;;;3.15;0.52;;;22.10;99.90;;;;;;5081609;28;20391;-71
2023/09/28 08:29:04;;;;;;;1.35;0.30;;;22.20;99.90;;;;;;5117249;27;20124;-72
2023/09/28 08:31:32;;;;;;;0.82;0.10;;;22.70;99.90;;;;;;5080407;28;20739;-71
2023/09/28 08:34:01;;;;;;;3.50;1.00;;;23.10;99.90;;;;;;5110026;27;20083;-72
2023/09/28 08:36:30;;;;;;;6.13;0.80;;;23.00;99.90;;;;;;5075550;28;20062;-71
2023/09/28 08:38:56;;;;;;;2.72;0.50;;;22.80;99.90;;;;;;5074674;28;20135;-72
2023/09/28 08:41:41;;;;;;;2.75;0.30;;;22.80;99.90;;;;;;5056855;28;20071;-72
2023/09/28 08:44:07;;;;;;;;;;;22.60;99.90;;;;;;5063022;28;20036;-72
2023/09/28 08:46:39;;;;;;;1.55;0.30;;;22.10;99.90;;;;;;5095885;28;19919;-72
2023/09/28 08:49:10;;;;;;;2.45;0.32;;;21.70;99.90;;;;;;5082975;28;20039;-72
2023/09/28 08:51:38;;;;;;;8.35;1.30;;;21.40;99.90;;;;;;5079316;28;20046;-72
2023/09/28 08:54:05;;;;;;;2.95;0.30;;;21.20;99.90;;;;;;5081359;28;20259;-71
2023/09/28 08:56:42;;;;;;;4.68;0.98;;;20.80;99.90;;;;;;5079171;28;20108;-73
2023/09/28 08:59:09;;;;;;;7.53;1.23;;;20.60;99.90;;;;;;5100236;28;20152;-71
2023/09/28 09:01:36;;;;;;;3.78;0.70;;;20.40;99.90;;;;;;5084248;28;20040;-71
2023/09/28 09:04:03;;;;;;;4.40;0.70;;;20.30;99.90;;;;;;5079616;28;20040;-72
2023/09/28 09:06:30;;;;;;;1.38;0.40;;;20.10;99.90;;;;;;5083182;28;20377;-72
2023/09/28 09:09:00;;;;;;;0.98;0.38;;;19.90;99.90;;;;;;5101373;28;20054;-72
2023/09/28 09:11:28;;;;;;;3.05;0.57;;;19.90;99.90;;;;;;5079729;28;20043;-71
2023/09/28 09:13:54;;;;;;;5.65;0.55;;;19.80;99.90;;;;;;5081400;28;20059;-72
2023/09/28 09:16:24;;;;;;;3.10;0.35;;;19.90;99.90;;;;;;5114782;27;20058;-72
2023/09/28 09:18:54;;;;;;;4.03;0.73;;;20.10;99.90;;;;;;5079610;28;20108;-71
2023/09/28 09:21:24;;;;;;;2.83;0.28;;;20.20;99.90;;;;;;5072403;28;20044;-72
2023/09/28 09:24:04;;;;;;;3.40;0.50;;;20.10;99.90;;;;;;5095631;27;20032;-72
2023/09/28 09:26:40;;;;;;;1.20;0.28;;;20.20;99.90;;;;;;5080575;28;20177;-71
2023/09/28 09:29:05;;;;;;;2.47;0.75;;;20.20;99.90;;;;;;5079592;28;20041;-72
2023/09/28 09:31:33;;;;;;;3.10;0.57;;;20.20;99.90;;;;;;5078097;28;20036;-73
2023/09/28 09:34:05;;;;;;;5.45;1.17;;;20.10;99.90;;;;;;5107572;27;20097;-72
2023/09/28 09:36:31;;;;;;;2.67;0.47;;;20.20;99.90;;;;;;5073991;28;20048;-71
2023/09/28 09:38:58;;;;;;;3.47;0.70;;;20.20;99.90;;;;;;5061665;28;20040;-71
2023/09/28 09:41:24;;;;;;;3.47;0.57;;;20.20;99.90;;;;;;5078350;28;20352;-71
2023/09/28 09:43:51;;;;;;;2.72;0.50;;;20.20;99.90;;;;;;5060882;28;20044;-71
2023/09/28 09:46:17;;;;;;;2.63;0.20;;;20.30;99.90;;;;;;5077380;28;20036;-71
2023/09/28 09:48:44;;;;;;;0.55;0.13;;;20.30;99.90;;;;;;5080051;28;20047;-72
2023/09/28 09:51:17;;;;;;;4.03;0.40;;;20.40;99.90;;;;;;5115083;27;20506;-71
2023/09/28 09:53:45;;;;;;;2.90;0.40;;;20.60;99.90;;;;;;5082611;28;20097;-72
2023/09/28 09:56:13;;;;;;;4.82;0.20;;;20.80;99.90;;;;;;5110824;27;20040;-71
2023/09/28 09:58:49;;;;;;;2.20;0.55;;;20.90;99.90;;;;;;5077517;28;20068;-71
2023/09/28 10:01:17;;;;;;;1.55;0.35;;;21.00;99.90;;;;;;5074849;28;20489;-70
2023/09/28 10:03:53;;;;;;;4.22;0.25;;;21.30;99.90;;;;;;5112845;27;20032;-72
2023/09/28 10:06:20;;;;;;;3.53;0.52;;;21.40;99.90;;;;;;5111809;27;20601;-71
2023/09/28 10:08:49;;;;;;;1.15;0.10;;;21.30;99.90;;;;;;5084112;28;20040;-72
2023/09/28 10:11:16;;;;;;;1.98;0.50;;;21.20;99.90;;;;;;5105420;28;20044;-71
2023/09/28 10:13:43;;;;;;;3.00;0.47;;;21.10;99.90;;;;;;5066186;28;20156;-72
2023/09/28 10:16:12;;;;;;;3.47;0.40;;;20.90;99.90;;;;;;5075797;28;20040;-71
2023/09/28 10:18:46;;;;;;;3.85;0.50;;;20.90;99.90;;;;;;5076592;28;20044;-72
2023/09/28 10:21:13;;;;;;;;;;;20.80;99.90;;;;;;5088893;28;20060;-72
2023/09/28 10:23:40;;;;;;;1.52;0.15;;;20.70;99.90;;;;;;5114319;28;20395;-71
2023/09/28 10:26:12;;;;;;;1.65;0.32;;;20.70;99.90;;;;;;5107066;28;20040;-72
2023/09/28 10:29:07;;;;;;;1.08;0.22;;;20.70;99.90;;;;;;5109231;28;20036;-72
2023/09/28 10:31:35;;;;;;;;;;;20.80;99.90;;;;;;5097890;28;20412;-71
2023/09/28 10:34:03;;;;;;;3.70;0.50;;;20.90;99.90;;;;;;5078935;28;19920;-72
2023/09/28 10:36:30;;;;;;;4.43;0.73;;;21.00;99.90;;;;;;5094263;28;20086;-71
2023/09/28 10:39:17;;;;;;;3.90;0.50;;;21.10;99.90;;;;;;5108983;28;20507;-72
2023/09/28 10:41:51;;;;;;;7.53;0.85;;;21.50;99.90;;;;;;5088255;28;20040;-71
2023/09/28 10:44:19;;;;;;;5.05;0.40;;;21.80;99.90;;;;;;5108793;28;20032;-72
2023/09/28 10:46:50;;;;;;;2.42;0.40;;;22.00;99.90;;;;;;5093558;28;20084;-71
2023/09/28 10:49:26;;;;;;;0.38;0.13;;;22.00;99.90;;;;;;5094694;28;20259;-72
2023/09/28 10:51:55;;;;;;;2.05;0.25;;;22.00;99.90;;;;;;5112645;27;20048;-72
2023/09/28 10:54:27;;;;;;;2.42;0.30;;;22.00;99.90;;;;;;5076695;28;20059;-71
2023/09/28 10:57:02;;;;;;;2.47;0.55;;;21.80;99.90;;;;;;5097608;28;20046;-73
2023/09/28 10:59:40;;;;;;;2.58;0.38;;;21.80;99.90;;;;;;5079590;28;20267;-72
2023/09/28 11:02:13;;;;;;;2.45;0.90;;;21.70;99.90;;;;;;5112370;27;20041;-71
2023/09/28 11:04:50;;;;;;;2.65;0.52;;;21.60;99.90;;;;;;5078944;28;20429;-71
2023/09/28 11:07:26;;;;;;;2.92;0.52;;;21.50;99.90;;;;;;5110306;27;20032;-71
2023/09/28 11:10:03;;;;;;;3.30;0.40;;;21.40;99.90;;;;;;5076023;28;20057;-71
2023/09/28 11:12:33;;;;;;;3.10;0.50;;;21.30;99.90;;;;;;5123242;27;20037;-75
2023/09/28 11:15:01;;;;;;;2.60;0.28;;;21.30;99.90;;;;;;5127963;27;20189;-75
2023/09/28 11:17:27;;;;;;;2.35;0.40;;;21.30;99.90;;;;;;5129759;27;20048;-75
2023/09/28 11:19:56;;;;;;;1.75;0.30;;;21.20;99.90;;;;;;5100841;28;20056;-75
2023/09/28 11:22:21;;;;;;;1.25;0.20;;;21.10;99.90;;;;;;5086978;28;20036;-75
2023/09/28 11:24:47;;;;;;;5.88;0.73;;;21.10;99.90;;;;;;5128788;27;20075;-74
2023/09/28 11:27:13;;;;;;;3.00;0.38;;;21.10;99.90;;;;;;5096559;28;20061;-75
2023/09/28 11:29:40;;;;;;;0.95;0.30;;;21.00;99.90;;;;;;5093698;28;20093;-75
2023/09/28 11:32:06;;;;;;;3.40;0.60;;;21.00;99.90;;;;;;5134032;27;20052;-75
2023/09/28 11:34:37;;;;;;;2.80;0.43;;;21.00;99.90;;;;;;5137060;27;20076;-75
2023/09/28 11:37:16;;;;;;;2.92;0.60;;;20.90;99.90;;;;;;5137407;27;20068;-75
2023/09/28 11:39:56;;;;;;;4.32;0.45;;;21.00;99.90;;;;;;5114184;28;20068;-75
2023/09/28 11:42:34;;;;;;;3.28;0.70;;;21.00;99.90;;;;;;5083653;28;20040;-75
2023/09/28 11:45:17;;;;;;;4.90;0.52;;;20.80;99.90;;;;;;5099381;28;20157;-75
2023/09/28 11:47:53;;;;;;;;;;;20.80;99.90;;;;;;5105465;28;20410;-75
2023/09/28 11:50:35;;;;;;;3.10;0.32;;;20.70;99.90;;;;;;5100201;28;19950;-75
2023/09/28 11:53:14;;;;;;;3.20;0.82;;;20.70;99.90;;;;;;5134853;27;20032;-75
2023/09/28 11:55:41;;;;;;;4.60;0.73;;;20.70;99.90;;;;;;5124830;27;20036;-75
2023/09/28 11:58:10;;;;;;;3.42;0.50;;;20.60;99.90;;;;;;5086225;28;20406;-75
2023/09/28 12:00:37;;;;;;;5.28;0.57;;;20.70;99.90;;;;;;5100740;28;20059;-75
2023/09/28 12:03:04;;;;;;;2.50;0.30;;;20.70;99.90;;;;;;5082780;28;20055;-75
2023/09/28 12:05:31;;;;;;;3.63;0.35;;;20.70;99.90;;;;;;5118157;27;20063;-73
2023/09/28 12:07:57;;;;;;;3.63;0.43;;;20.70;99.90;;;;;;5081304;28;20395;-74
2023/09/28 12:10:23;;;;;;;1.90;0.55;;;20.70;99.90;;;;;;5120131;27;20051;-74
2023/09/28 12:12:49;;;;;;;0.80;0.17;;;20.80;99.90;;;;;;5115556;27;20048;-74
2023/09/28 12:15:42;;;;;;;1.88;0.47;;;20.80;99.90;;;;;;5088016;28;20028;-73
2023/09/28 12:18:09;;;;;;;3.97;0.80;;;20.90;99.90;;;;;;5083135;28;20127;-73
2023/09/28 12:20:35;;;;;;;4.82;0.65;;;21.00;99.90;;;;;;5098210;28;20055;-73
2023/09/28 12:23:01;;;;;;;1.30;0.30;;;21.00;99.90;;;;;;5095861;28;20028;-73
2023/09/28 12:25:37;;;;;;;2.10;0.57;;;21.10;99.90;;;;;;5095891;28;20107;-73
2023/09/28 12:28:03;;;;;;;2.05;0.28;;;21.10;99.90;;;;;;5085890;28;20719;-73
2023/09/28 12:30:30;;;;;;;4.93;0.52;;;21.00;99.90;;;;;;5099254;28;20082;-73
2023/09/28 12:32:57;;;;;;;2.55;0.35;;;21.20;99.90;;;;;;5122042;27;20044;-73
2023/09/28 12:35:23;;;;;;;5.57;0.50;;;21.30;99.90;;;;;;5118250;27;20036;-73
2023/09/28 12:37:49;;;;;;;1.42;0.10;;;21.50;99.90;;;;;;5074032;28;20037;-73
2023/09/28 12:40:17;;;;;;;4.47;0.60;;;21.60;99.90;;;;;;5122165;27;20476;-73
2023/09/28 12:42:43;;;;;;;3.15;0.55;;;21.60;99.90;;;;;;5083586;28;20036;-73
2023/09/28 12:45:09;;;;;;;3.53;0.43;;;21.80;99.90;;;;;;5120070;27;20047;-73
2023/09/28 12:47:35;;;;;;;4.40;0.45;;;22.00;99.90;;;;;;5104444;28;20078;-73
2023/09/28 12:50:04;;;;;;;3.08;0.50;;;22.20;99.90;;;;;;5123441;27;20110;-74
2023/09/28 12:52:31;;;;;;;1.05;0.40;;;22.20;99.90;;;;;;5082955;28;20040;-75